Terminal Aerodrome Forecast
Issued by NWS

Home | Current Version | Previous Version | Text Only | Print | Product List | Glossary On
Versions: 1 2 3 4 5 6 7 8 9 10 11 12 13 14 15
000
FTUS45 KRIW 182324
TAFRKS
TAF
KRKS 182324Z 1900/1924 23006KT P6SM SCT250
     FM190100 15006KT P6SM SCT250
     FM191800 19007KT P6SM BKN080
     FM192200 19007KT P6SM VCSH BKN050=

USA.gov is the U.S. government's official web portal to all federal, state and local government web resources and services.